createdAt,value
2022-09-27T00:01:39.565Z,97.46
2022-09-27T00:04:07.679Z,97.02
2022-09-27T00:06:39.959Z,97.11
2022-09-27T00:09:08.970Z,97.43
2022-09-27T00:11:40.243Z,97.84
2022-09-27T00:14:09.503Z,97.79
2022-09-27T00:16:40.933Z,97.60
2022-09-27T00:19:12.231Z,97.85
2022-09-27T00:21:40.349Z,97.66
2022-09-27T00:24:08.517Z,97.47
2022-09-27T00:26:36.985Z,97.83
2022-09-27T00:29:05.035Z,97.97
2022-09-27T00:31:33.293Z,97.76
2022-09-27T00:34:04.358Z,98.20
2022-09-27T00:36:33.384Z,98.37
2022-09-27T00:39:02.743Z,98.08
2022-09-27T00:41:32.786Z,98.22
2022-09-27T00:44:04.436Z,98.30
2022-09-27T00:46:37.863Z,98.27
2022-09-27T00:49:14.791Z,97.96
2022-09-27T00:51:46.989Z,98.07
2022-09-27T00:54:18.478Z,98.23
2022-09-27T00:56:47.781Z,98.24
2022-09-27T00:59:21.358Z,97.92
2022-09-27T01:01:51.145Z,97.74
2022-09-27T01:04:24.140Z,97.68
2022-09-27T01:06:52.884Z,97.32
2022-09-27T01:09:21.535Z,97.02
2022-09-27T01:11:55.847Z,96.54
2022-09-27T01:14:38.330Z,96.64
2022-09-27T01:17:16.954Z,96.92
2022-09-27T01:20:32.489Z,97.27
2022-09-27T01:23:21.686Z,97.65
2022-09-27T01:26:12.354Z,98.04
2022-09-27T01:28:57.705Z,98.33
2022-09-27T01:31:34.348Z,98.38
2022-09-27T01:34:07.580Z,98.75
2022-09-27T01:36:45.138Z,98.90
2022-09-27T01:39:26.690Z,98.65
2022-09-27T01:42:02.808Z,99.01
2022-09-27T01:44:36.360Z,98.91
2022-09-27T01:47:12.063Z,99.03
2022-09-27T01:49:47.234Z,98.76
2022-09-27T01:52:21.721Z,98.50
2022-09-27T01:55:00.422Z,98.46
2022-09-27T01:57:33.601Z,98.58
2022-09-27T02:00:05.521Z,98.48
2022-09-27T02:02:39.503Z,98.77
2022-09-27T02:05:11.644Z,99.03
2022-09-27T02:07:42.985Z,99.10
2022-09-27T02:10:14.641Z,99.52
2022-09-27T02:12:51.654Z,99.41
2022-09-27T02:15:20.487Z,99.45
2022-09-27T02:17:58.397Z,99.38
2022-09-27T02:20:31.814Z,99.54
2022-09-27T02:23:10.630Z,99.73
2022-09-27T02:25:45.594Z,99.93
2022-09-27T02:28:24.611Z,100.00
2022-09-27T02:30:52.927Z,99.85
2022-09-27T02:33:25.946Z,99.68
2022-09-27T02:35:53.957Z,100.00
2022-09-27T02:38:22.529Z,100.00
2022-09-27T02:40:50.677Z,100.00
2022-09-27T02:43:22.377Z,100.00
2022-09-27T02:46:08.041Z,100.00
2022-09-27T02:48:45.218Z,99.74
2022-09-27T02:51:32.801Z,99.31
2022-09-27T02:54:12.274Z,99.24
2022-09-27T02:56:49.543Z,99.61
2022-09-27T02:59:27.461Z,99.31
2022-09-27T03:02:08.570Z,99.58
2022-09-27T03:04:45.393Z,99.36
2022-09-27T03:07:15.629Z,99.29
2022-09-27T03:09:46.435Z,99.04
2022-09-27T03:12:14.530Z,99.32
2022-09-27T03:14:42.574Z,99.51
2022-09-27T03:17:10.611Z,99.52
2022-09-27T03:19:40.061Z,99.69
2022-09-27T03:22:08.096Z,99.74
2022-09-27T03:24:36.130Z,100.00
2022-09-27T03:27:04.495Z,100.00
2022-09-27T03:29:32.854Z,100.00
2022-09-27T03:32:00.916Z,100.00
2022-09-27T03:34:29.495Z,100.00
2022-09-27T03:36:59.110Z,100.00
2022-09-27T03:39:27.402Z,100.00
2022-09-27T03:41:55.582Z,100.00
2022-09-27T03:44:23.822Z,99.83
2022-09-27T03:46:51.854Z,99.50
2022-09-27T03:49:19.876Z,99.41
2022-09-27T03:51:48.150Z,99.24
2022-09-27T03:54:17.605Z,99.41
2022-09-27T03:56:45.708Z,99.52
2022-09-27T03:59:14.259Z,99.61
2022-09-27T04:01:44.678Z,100.00
2022-09-27T04:04:12.958Z,100.00
2022-09-27T04:06:40.975Z,100.00
2022-09-27T04:09:09.050Z,100.00
2022-09-27T04:11:38.544Z,100.00
2022-09-27T04:14:06.642Z,100.00
2022-09-27T04:16:34.694Z,100.00
2022-09-27T04:19:03.505Z,100.00
2022-09-27T04:21:31.668Z,100.00
2022-09-27T04:23:59.865Z,100.00
2022-09-27T04:26:28.029Z,100.00
2022-09-27T04:28:58.028Z,100.00
2022-09-27T04:31:26.335Z,100.00
2022-09-27T04:33:54.910Z,100.00
2022-09-27T04:36:29.635Z,100.00
2022-09-27T04:38:59.106Z,100.00
2022-09-27T04:41:28.430Z,100.00
2022-09-27T04:44:01.259Z,100.00
2022-09-27T04:46:31.788Z,100.00
2022-09-27T04:49:00.384Z,100.00
2022-09-27T04:51:28.966Z,100.00
2022-09-27T04:53:58.115Z,100.00
2022-09-27T04:56:26.323Z,100.00
2022-09-27T04:58:54.809Z,100.00
2022-09-27T05:01:24.347Z,100.00
2022-09-27T05:03:52.440Z,100.00
2022-09-27T05:06:20.791Z,100.00
2022-09-27T05:08:48.877Z,100.00
2022-09-27T05:11:17.070Z,100.00
2022-09-27T05:13:45.213Z,100.00
2022-09-27T05:16:13.332Z,100.00
2022-09-27T05:18:42.878Z,100.00
2022-09-27T05:21:10.958Z,100.00
2022-09-27T05:23:38.961Z,100.00
2022-09-27T05:26:07.568Z,100.00
2022-09-27T05:28:36.345Z,100.00
2022-09-27T05:31:04.461Z,100.00
2022-09-27T05:33:34.499Z,100.00
2022-09-27T05:36:04.584Z,100.00
2022-09-27T05:38:32.623Z,100.00
2022-09-27T05:41:00.709Z,100.00
2022-09-27T05:43:29.112Z,100.00
2022-09-27T05:45:57.198Z,100.00
2022-09-27T05:48:25.226Z,100.00
2022-09-27T05:50:53.282Z,100.00
2022-09-27T05:53:22.689Z,100.00
2022-09-27T05:55:50.755Z,100.00
2022-09-27T05:58:18.755Z,100.00
2022-09-27T06:00:46.897Z,100.00
2022-09-27T06:03:15.404Z,100.00
2022-09-27T06:05:45.989Z,100.00
2022-09-27T06:08:16.302Z,100.00
2022-09-27T06:10:46.018Z,100.00
2022-09-27T06:13:15.968Z,100.00
2022-09-27T06:15:47.321Z,100.00
2022-09-27T06:18:18.239Z,100.00
2022-09-27T06:20:46.877Z,100.00
2022-09-27T06:23:17.542Z,100.00
2022-09-27T06:25:48.166Z,100.00
2022-09-27T06:28:17.283Z,100.00
2022-09-27T06:30:47.113Z,100.00
2022-09-27T06:33:18.181Z,100.00
2022-09-27T06:35:47.054Z,100.00
2022-09-27T06:38:17.283Z,100.00
2022-09-27T06:40:47.095Z,100.00
2022-09-27T06:43:17.217Z,100.00
2022-09-27T06:45:45.567Z,100.00
2022-09-27T06:48:16.243Z,100.00
2022-09-27T06:50:45.751Z,100.00
2022-09-27T06:53:15.626Z,100.00
2022-09-27T06:55:44.230Z,100.00
2022-09-27T06:58:31.332Z,100.00
2022-09-27T07:00:59.995Z,100.00
2022-09-27T07:03:35.451Z,100.00
2022-09-27T07:06:07.964Z,100.00
2022-09-27T07:08:36.118Z,100.00
2022-09-27T07:11:06.525Z,100.00
2022-09-27T07:13:40.560Z,100.00
2022-09-27T07:16:08.901Z,100.00
2022-09-27T07:18:37.179Z,100.00
2022-09-27T07:21:05.321Z,100.00
2022-09-27T07:23:33.341Z,100.00
2022-09-27T07:26:04.564Z,100.00
2022-09-27T07:28:32.900Z,99.54
2022-09-27T07:31:03.860Z,100.00
2022-09-27T07:33:33.023Z,98.90
2022-09-27T07:36:01.142Z,99.96
2022-09-27T07:38:29.257Z,100.00
2022-09-27T07:40:57.415Z,99.57
2022-09-27T07:43:25.616Z,97.16
2022-09-27T07:45:53.962Z,98.25
2022-09-27T07:48:23.572Z,96.11
2022-09-27T07:50:51.598Z,95.99
2022-09-27T07:53:19.772Z,96.72
2022-09-27T07:55:52.127Z,96.97
2022-09-27T07:58:21.166Z,98.95
2022-09-27T08:00:49.330Z,97.19
2022-09-27T08:03:19.021Z,94.35
2022-09-27T08:05:49.675Z,94.38
2022-09-27T08:08:18.133Z,95.75
2022-09-27T08:10:47.679Z,93.66
2022-09-27T08:13:20.567Z,95.33
2022-09-27T08:15:50.995Z,98.12
2022-09-27T08:18:22.192Z,97.88
2022-09-27T08:20:51.990Z,99.86
2022-09-27T08:23:20.063Z,98.06
2022-09-27T08:25:54.543Z,97.93
2022-09-27T08:28:22.868Z,99.25
2022-09-27T08:30:52.006Z,100.00
2022-09-27T08:33:20.698Z,100.00
2022-09-27T08:35:48.834Z,99.24
2022-09-27T08:38:18.810Z,98.76
2022-09-27T08:40:54.755Z,100.00
2022-09-27T08:43:36.767Z,100.00
2022-09-27T08:46:14.711Z,100.00
2022-09-27T08:48:46.528Z,100.00
2022-09-27T08:51:16.728Z,100.00
2022-09-27T08:53:52.322Z,100.00
2022-09-27T08:56:21.642Z,100.00
2022-09-27T08:58:54.129Z,100.00
2022-09-27T09:01:27.850Z,100.00
2022-09-27T09:04:01.757Z,100.00
2022-09-27T09:06:36.497Z,100.00
2022-09-27T09:09:16.548Z,100.00
2022-09-27T09:12:17.740Z,100.00
2022-09-27T09:14:59.615Z,100.00
2022-09-27T09:17:45.055Z,100.00
2022-09-27T09:20:23.498Z,100.00
2022-09-27T09:23:19.081Z,100.00
2022-09-27T09:26:00.575Z,100.00
2022-09-27T09:28:43.615Z,100.00
2022-09-27T09:31:23.994Z,100.00
2022-09-27T09:33:56.625Z,100.00
2022-09-27T09:36:32.711Z,100.00
2022-09-27T09:39:06.687Z,100.00
2022-09-27T09:41:42.970Z,100.00
2022-09-27T09:44:18.853Z,100.00
2022-09-27T09:46:51.142Z,99.99
2022-09-27T09:49:25.223Z,98.00
2022-09-27T09:51:57.081Z,98.13
2022-09-27T09:54:31.660Z,97.89
2022-09-27T09:57:05.058Z,98.17
2022-09-27T09:59:39.283Z,98.60
2022-09-27T10:02:22.405Z,98.88
2022-09-27T10:04:50.830Z,98.88
2022-09-27T10:07:22.674Z,99.01
2022-09-27T10:09:51.445Z,98.86
2022-09-27T10:12:20.992Z,98.57
2022-09-27T10:14:51.785Z,98.26
2022-09-27T10:17:22.983Z,97.49
2022-09-27T10:19:54.348Z,97.30
2022-09-27T10:22:28.437Z,96.69
2022-09-27T10:25:01.999Z,92.98
2022-09-27T10:27:41.384Z,94.87
2022-09-27T10:30:24.278Z,94.90
2022-09-27T10:32:57.223Z,94.22
2022-09-27T10:35:37.895Z,91.43
2022-09-27T10:38:23.000Z,90.02
2022-09-27T10:40:52.173Z,91.08
2022-09-27T10:43:32.251Z,91.51
2022-09-27T10:46:18.157Z,89.64
2022-09-27T10:48:46.183Z,90.38
2022-09-27T10:51:26.653Z,92.48
2022-09-27T10:53:58.822Z,91.04
2022-09-27T10:56:30.896Z,90.91
2022-09-27T10:59:01.145Z,90.55
2022-09-27T11:01:40.969Z,89.52
2022-09-27T11:04:09.391Z,88.71
2022-09-27T11:06:39.395Z,87.39
2022-09-27T11:09:24.464Z,85.15
2022-09-27T11:11:52.788Z,84.99
2022-09-27T11:14:33.688Z,87.71
2022-09-27T11:17:11.312Z,87.66
2022-09-27T11:19:55.624Z,88.41
2022-09-27T11:22:42.033Z,91.78
2022-09-27T11:25:21.348Z,92.33
2022-09-27T11:28:01.957Z,92.55
2022-09-27T11:30:40.878Z,93.32
2022-09-27T11:33:36.459Z,88.44
2022-09-27T11:36:13.915Z,88.18
2022-09-27T11:39:00.516Z,88.29
2022-09-27T11:41:41.952Z,88.02
2022-09-27T11:44:25.799Z,87.80
2022-09-27T11:47:06.659Z,87.24
2022-09-27T11:50:03.981Z,86.64
2022-09-27T11:52:45.900Z,86.21
2022-09-27T11:55:26.406Z,83.41
2022-09-27T11:58:03.070Z,82.68
2022-09-27T12:00:46.229Z,81.64
2022-09-27T12:03:47.636Z,86.08
2022-09-27T12:06:19.506Z,84.59
2022-09-27T12:09:03.044Z,87.54
2022-09-27T12:11:36.109Z,85.97
2022-09-27T12:14:08.137Z,85.49
2022-09-27T12:16:38.658Z,85.35
2022-09-27T12:21:45.516Z,87.37
2022-09-27T12:24:21.970Z,88.01
2022-09-27T12:26:52.883Z,86.12
2022-09-27T12:29:26.062Z,87.62
2022-09-27T12:32:03.184Z,88.28
2022-09-27T12:34:40.259Z,86.41
2022-09-27T12:37:15.042Z,87.44
2022-09-27T12:39:52.012Z,88.24
2022-09-27T12:42:25.494Z,88.96
2022-09-27T12:44:54.182Z,90.38
2022-09-27T12:47:41.180Z,91.01
2022-09-27T12:50:21.464Z,91.55
2022-09-27T12:52:56.202Z,92.23
2022-09-27T12:56:02.621Z,93.16
2022-09-27T12:59:01.874Z,93.08
2022-09-27T13:01:47.529Z,94.63
2022-09-27T13:04:32.060Z,94.07
2022-09-27T13:07:17.465Z,94.26
2022-09-27T13:10:02.462Z,93.03
2022-09-27T13:12:31.545Z,93.09
2022-09-27T13:15:03.449Z,93.85
2022-09-27T13:17:48.990Z,93.60
2022-09-27T13:20:46.500Z,92.05
2022-09-27T13:24:03.718Z,86.35
2022-09-27T13:26:50.637Z,89.07
2022-09-27T13:29:24.346Z,89.40
2022-09-27T13:32:12.559Z,92.30
2022-09-27T13:34:42.518Z,93.22
2022-09-27T13:37:45.456Z,94.79
2022-09-27T13:40:25.253Z,92.42
2022-09-27T13:56:53.378Z,91.24
2022-09-27T13:59:26.382Z,86.55
2022-09-27T14:02:01.019Z,88.25
2022-09-27T14:04:35.444Z,89.16
2022-09-27T14:07:05.435Z,89.77
2022-09-27T14:09:36.214Z,90.42
2022-09-27T14:12:11.361Z,89.78
2022-09-27T14:14:42.832Z,90.49
2022-09-27T14:17:11.730Z,89.06
2022-09-27T14:19:42.423Z,86.28
2022-09-27T14:22:14.322Z,88.10
2022-09-27T14:24:47.750Z,89.29
2022-09-27T14:27:19.939Z,89.94
2022-09-27T14:29:51.556Z,90.96
2022-09-27T14:32:21.466Z,89.67
2022-09-27T14:35:05.191Z,88.50
2022-09-27T14:37:32.428Z,90.14
2022-09-27T14:40:06.358Z,91.09
2022-09-27T14:42:37.591Z,92.09
2022-09-27T14:45:16.194Z,93.48
2022-09-27T14:47:47.379Z,93.76
2022-09-27T14:50:20.312Z,93.13
2022-09-27T14:52:49.947Z,93.24
2022-09-27T14:55:21.367Z,96.19
2022-09-27T14:57:53.807Z,94.89
2022-09-27T15:00:24.757Z,94.82
2022-09-27T15:02:55.770Z,96.11
2022-09-27T15:05:25.583Z,97.79
2022-09-27T15:07:55.882Z,98.99
2022-09-27T15:10:28.053Z,99.03
2022-09-27T15:13:01.401Z,98.98
2022-09-27T15:15:32.460Z,98.97
2022-09-27T15:18:00.809Z,98.79
2022-09-27T15:20:34.989Z,99.02
2022-09-27T15:23:05.054Z,98.88
2022-09-27T15:25:35.841Z,99.60
2022-09-27T15:28:06.979Z,99.51
2022-09-27T15:30:36.785Z,99.31
2022-09-27T15:33:05.639Z,99.17
2022-09-27T15:35:35.132Z,99.00
2022-09-27T15:38:14.842Z,98.73
2022-09-27T15:41:11.335Z,98.50
2022-09-27T15:43:45.486Z,99.09
2022-09-27T15:46:38.122Z,99.46
2022-09-27T15:49:24.221Z,100.00
2022-09-27T15:51:53.275Z,99.82
2022-09-27T15:54:21.758Z,99.60
2022-09-27T15:56:55.052Z,99.51
2022-09-27T15:59:26.748Z,99.41
2022-09-27T16:01:57.508Z,99.65
2022-09-27T16:04:26.342Z,100.00
2022-09-27T16:06:54.914Z,100.00
2022-09-27T16:09:23.618Z,100.00
2022-09-27T16:11:51.977Z,100.00
2022-09-27T16:14:20.602Z,100.00
2022-09-27T16:16:52.210Z,100.00
2022-09-27T16:19:20.565Z,100.00
2022-09-27T16:21:49.093Z,100.00
2022-09-27T16:24:18.409Z,100.00
2022-09-27T16:26:46.293Z,100.00
2022-09-27T16:29:16.878Z,99.96
2022-09-27T16:31:45.294Z,99.80
2022-09-27T16:34:14.795Z,99.38
2022-09-27T16:36:42.731Z,100.00
2022-09-27T16:39:14.372Z,99.84
2022-09-27T16:41:43.663Z,99.87
2022-09-27T16:44:13.614Z,100.00
2022-09-27T16:46:42.369Z,99.96
2022-09-27T16:49:30.542Z,100.00
2022-09-27T16:52:01.926Z,100.00
2022-09-27T16:54:30.677Z,100.00
2022-09-27T16:56:59.845Z,100.00
2022-09-27T16:59:28.011Z,100.00
2022-09-27T17:01:57.308Z,100.00
2022-09-27T17:04:25.534Z,100.00
2022-09-27T17:06:53.521Z,99.90
2022-09-27T17:09:23.064Z,99.73
2022-09-27T17:11:51.188Z,99.78
2022-09-27T17:14:19.235Z,99.42
2022-09-27T17:16:48.433Z,99.29
2022-09-27T17:19:16.800Z,99.11
2022-09-27T17:21:44.895Z,98.88
2022-09-27T17:24:13.292Z,98.65
2022-09-27T17:26:42.953Z,99.03
2022-09-27T17:29:11.810Z,99.01
2022-09-27T17:31:41.035Z,98.51
2022-09-27T17:34:12.363Z,98.49
2022-09-27T17:36:42.439Z,98.50
2022-09-27T17:39:14.144Z,98.71
2022-09-27T17:41:43.949Z,99.32
2022-09-27T17:44:14.178Z,99.33
2022-09-27T17:46:43.196Z,99.49
2022-09-27T17:49:29.422Z,99.81
2022-09-27T17:51:57.797Z,99.33
2022-09-27T17:54:28.007Z,98.93
2022-09-27T17:56:57.454Z,98.18
2022-09-27T17:59:26.093Z,98.03
2022-09-27T18:01:54.106Z,98.09
2022-09-27T18:04:22.496Z,98.15
2022-09-27T18:06:50.488Z,97.90
2022-09-27T18:09:19.772Z,98.42
2022-09-27T18:11:48.314Z,98.47
2022-09-27T18:14:17.997Z,98.19
2022-09-27T18:16:46.163Z,98.46
2022-09-27T18:19:15.816Z,98.94
2022-09-27T18:21:44.107Z,99.41
2022-09-27T18:24:14.340Z,100.00
2022-09-27T18:26:42.563Z,100.00
2022-09-27T18:29:14.163Z,100.00
2022-09-27T18:31:48.431Z,100.00
2022-09-27T18:34:17.779Z,100.00
2022-09-27T18:36:46.234Z,100.00
2022-09-27T18:39:18.253Z,100.00
2022-09-27T18:41:48.613Z,100.00
2022-09-27T18:44:17.596Z,100.00
2022-09-27T18:46:47.415Z,100.00
2022-09-27T18:49:16.014Z,100.00
2022-09-27T18:51:47.067Z,100.00
2022-09-27T18:54:17.238Z,100.00
2022-09-27T18:56:45.544Z,100.00
2022-09-27T18:59:13.537Z,100.00
2022-09-27T19:01:45.369Z,100.00
2022-09-27T19:04:21.641Z,100.00
2022-09-27T19:06:51.365Z,100.00
2022-09-27T19:09:19.430Z,100.00
2022-09-27T19:11:47.458Z,100.00
2022-09-27T19:14:17.628Z,100.00
2022-09-27T19:16:47.503Z,100.00
2022-09-27T19:19:17.756Z,100.00
2022-09-27T19:21:46.305Z,100.00
2022-09-27T19:24:15.236Z,100.00
2022-09-27T19:26:43.748Z,100.00
2022-09-27T19:29:12.992Z,100.00
2022-09-27T19:31:42.419Z,100.00
2022-09-27T19:34:10.833Z,100.00
2022-09-27T19:36:40.187Z,100.00
2022-09-27T19:39:08.170Z,100.00
2022-09-27T19:41:36.080Z,100.00
2022-09-27T19:44:04.043Z,100.00
2022-09-27T19:46:32.031Z,100.00
2022-09-27T19:49:01.681Z,100.00
2022-09-27T19:51:31.092Z,100.00
2022-09-27T19:54:00.401Z,100.00
2022-09-27T19:56:28.298Z,100.00
2022-09-27T19:58:56.218Z,100.00
2022-09-27T20:01:26.156Z,100.00
2022-09-27T20:03:58.034Z,100.00
2022-09-27T20:06:26.178Z,100.00
2022-09-27T20:08:54.083Z,100.00
2022-09-27T20:11:26.254Z,100.00
2022-09-27T20:13:54.472Z,100.00
2022-09-27T20:16:24.029Z,100.00
2022-09-27T20:18:53.434Z,100.00
2022-09-27T20:21:22.955Z,100.00
2022-09-27T20:23:52.725Z,100.00
2022-09-27T20:26:24.342Z,100.00
2022-09-27T20:28:54.045Z,100.00
2022-09-27T20:31:23.573Z,100.00
2022-09-27T20:33:51.768Z,100.00
2022-09-27T20:36:21.074Z,100.00
2022-09-27T20:38:50.359Z,100.00
2022-09-27T20:41:21.772Z,100.00
2022-09-27T20:43:54.101Z,100.00
2022-09-27T20:46:22.933Z,100.00
2022-09-27T20:48:53.657Z,100.00
2022-09-27T20:51:21.964Z,100.00
2022-09-27T20:53:51.448Z,100.00
2022-09-27T20:56:21.464Z,100.00
2022-09-27T20:58:52.526Z,100.00
2022-09-27T21:01:21.986Z,100.00
2022-09-27T21:03:54.633Z,100.00
2022-09-27T21:06:24.031Z,100.00
2022-09-27T21:08:52.670Z,100.00
2022-09-27T21:11:21.894Z,100.00
2022-09-27T21:13:53.992Z,100.00
2022-09-27T21:16:23.711Z,100.00
2022-09-27T21:18:52.611Z,100.00
2022-09-27T21:21:21.761Z,100.00
2022-09-27T21:23:55.313Z,100.00
2022-09-27T21:26:24.658Z,100.00
2022-09-27T21:28:55.706Z,100.00
2022-09-27T21:31:25.286Z,100.00
2022-09-27T21:33:55.440Z,100.00
2022-09-27T21:36:24.708Z,100.00
2022-09-27T21:38:52.751Z,100.00
2022-09-27T21:41:20.984Z,100.00
2022-09-27T21:43:50.038Z,100.00
2022-09-27T21:46:23.473Z,100.00
2022-09-27T21:48:53.175Z,100.00
2022-09-27T21:51:22.793Z,100.00
2022-09-27T21:53:52.431Z,100.00
2022-09-27T21:56:23.238Z,100.00
2022-09-27T21:58:51.142Z,100.00
2022-09-27T22:01:22.363Z,100.00
2022-09-27T22:03:51.654Z,100.00
2022-09-27T22:06:21.642Z,100.00
2022-09-27T22:08:50.431Z,100.00
2022-09-27T22:11:20.628Z,100.00
2022-09-27T22:13:49.150Z,100.00
2022-09-27T22:16:18.635Z,100.00
2022-09-27T22:18:50.164Z,100.00
2022-09-27T22:21:21.202Z,100.00
2022-09-27T22:23:49.790Z,100.00
2022-09-27T22:26:19.196Z,100.00
2022-09-27T22:28:47.754Z,100.00
2022-09-27T22:31:18.647Z,100.00
2022-09-27T22:33:51.555Z,100.00
2022-09-27T22:36:19.506Z,100.00
2022-09-27T22:38:47.731Z,100.00
2022-09-27T22:41:16.196Z,100.00
2022-09-27T22:43:44.874Z,100.00
2022-09-27T22:46:13.207Z,100.00
2022-09-27T22:48:41.745Z,100.00
2022-09-27T22:51:11.469Z,100.00
2022-09-27T22:53:39.698Z,100.00
2022-09-27T22:56:10.042Z,100.00
2022-09-27T22:58:38.786Z,100.00
2022-09-27T23:01:10.656Z,100.00
2022-09-27T23:03:38.705Z,100.00
2022-09-27T23:06:08.276Z,100.00
2022-09-27T23:08:38.301Z,100.00
2022-09-27T23:11:08.237Z,100.00
2022-09-27T23:13:37.941Z,100.00
2022-09-27T23:16:07.792Z,100.00
2022-09-27T23:18:37.331Z,100.00
2022-09-27T23:21:08.368Z,100.00
2022-09-27T23:23:40.772Z,100.00
2022-09-27T23:26:10.658Z,100.00
2022-09-27T23:28:39.134Z,100.00
2022-09-27T23:31:08.513Z,100.00
2022-09-27T23:33:37.442Z,100.00
2022-09-27T23:36:06.501Z,100.00
2022-09-27T23:38:34.575Z,100.00
2022-09-27T23:41:03.899Z,100.00
2022-09-27T23:43:31.803Z,100.00
2022-09-27T23:45:59.737Z,100.00
2022-09-27T23:48:27.908Z,100.00
2022-09-27T23:50:56.830Z,100.00
2022-09-27T23:53:25.271Z,100.00
2022-09-27T23:56:02.770Z,100.00
2022-09-27T23:58:34.038Z,100.00
